Time;durP1;ratioP1;P1;durP2;ratioP2;P2;SDS_P1;SDS_P2;PMS_P1;PMS_P2;Temp;Humidity;BMP_temperature;BMP_pressure;BME280_temperature;BME280_humidity;BME280_pressure;Samples;Min_cycle;Max_cycle;Signal;HPM_P1;HPM_P2
2022/06/15 00:00:42;;;;;;;5.67;2.80;;;15.80;99.90;;;;;;5093070;28;20500;-83
2022/06/15 00:03:10;;;;;;;3.10;2.90;;;15.70;99.90;;;;;;5092041;28;20486;-83
2022/06/15 00:05:38;;;;;;;3.37;2.70;;;15.60;99.90;;;;;;5091234;28;20514;-83
2022/06/15 00:08:05;;;;;;;6.03;3.10;;;15.60;99.90;;;;;;5081804;28;20471;-84
2022/06/15 00:10:32;;;;;;;6.30;3.17;;;15.50;99.90;;;;;;5087488;28;20892;-82
2022/06/15 00:12:59;;;;;;;3.83;3.37;;;15.50;99.90;;;;;;5082528;28;20463;-82
2022/06/15 00:15:25;;;;;;;3.53;3.30;;;15.50;99.90;;;;;;5092376;28;20414;-83
2022/06/15 00:17:52;;;;;;;4.20;3.30;;;15.40;99.90;;;;;;5090324;28;20451;-83
2022/06/15 00:20:19;;;;;;;8.33;3.40;;;15.40;99.90;;;;;;5095774;28;20973;-83
2022/06/15 00:22:47;;;;;;;4.30;2.57;;;15.40;99.90;;;;;;5085873;28;20969;-82
2022/06/15 00:25:14;;;;;;;5.70;3.00;;;15.30;99.90;;;;;;5087217;28;20476;-83
2022/06/15 00:27:40;;;;;;;4.90;3.03;;;15.30;99.90;;;;;;5092177;28;20634;-82
2022/06/15 00:30:09;;;;;;;5.17;3.67;;;15.20;99.90;;;;;;5098363;28;20584;-83
2022/06/15 00:32:35;;;;;;;4.63;3.10;;;15.20;99.90;;;;;;5088072;28;20458;-82
2022/06/15 00:35:02;;;;;;;7.90;3.83;;;15.20;99.90;;;;;;5088894;28;20447;-82
2022/06/15 00:37:29;;;;;;;5.47;3.23;;;15.20;99.90;;;;;;5092465;28;20486;-82
2022/06/15 00:39:57;;;;;;;6.30;3.10;;;15.20;99.90;;;;;;5091505;28;20471;-83
2022/06/15 00:42:31;;;;;;;7.13;3.20;;;15.20;99.90;;;;;;5084732;28;20589;-82
2022/06/15 00:44:57;;;;;;;12.63;3.50;;;15.20;99.90;;;;;;5089822;28;20452;-82
2022/06/15 00:47:27;;;;;;;4.97;3.20;;;15.20;99.90;;;;;;5088525;28;20523;-82
2022/06/15 00:49:58;;;;;;;4.17;3.33;;;15.10;99.90;;;;;;5092196;28;20466;-82
2022/06/15 00:52:33;;;;;;;6.20;3.50;;;15.10;99.90;;;;;;5091100;28;20468;-82
2022/06/15 00:55:04;;;;;;;6.53;3.30;;;15.10;99.90;;;;;;5090726;28;20429;-82
2022/06/15 00:57:31;;;;;;;5.13;3.20;;;15.10;99.90;;;;;;5096834;28;20443;-82
2022/06/15 00:59:59;;;;;;;7.20;4.10;;;15.10;99.90;;;;;;5092728;28;20463;-82
2022/06/15 01:02:27;;;;;;;6.63;3.37;;;15.00;99.90;;;;;;5096205;28;20461;-83
2022/06/15 01:04:57;;;;;;;3.73;3.00;;;15.10;99.90;;;;;;5089280;28;20890;-82
2022/06/15 01:07:51;;;;;;;4.07;3.20;;;15.10;99.90;;;;;;5084613;28;20452;-82
2022/06/15 01:10:29;;;;;;;7.63;3.67;;;14.90;99.90;;;;;;5083311;28;20521;-82
2022/06/15 01:13:09;;;;;;;5.00;3.30;;;14.80;99.90;;;;;;5097483;28;20476;-83
2022/06/15 01:15:45;;;;;;;5.57;3.37;;;14.80;99.90;;;;;;5089080;28;20450;-82
2022/06/15 01:18:25;;;;;;;6.43;3.60;;;14.80;99.90;;;;;;5089929;28;20504;-82
2022/06/15 01:21:12;;;;;;;7.90;3.60;;;14.70;99.90;;;;;;5091947;28;20518;-83
2022/06/15 01:24:00;;;;;;;11.20;3.87;;;14.70;99.90;;;;;;5095928;28;20508;-82
2022/06/15 01:27:12;;;;;;;6.37;3.47;;;14.70;99.90;;;;;;5090819;28;20531;-82
2022/06/15 01:30:12;;;;;;;9.80;3.30;;;14.70;99.90;;;;;;5082857;28;20455;-82
2022/06/15 01:32:44;;;;;;;5.10;3.47;;;14.70;99.90;;;;;;5079484;28;20910;-84
2022/06/15 01:35:18;;;;;;;7.83;4.77;;;14.70;99.90;;;;;;5078305;28;20451;-82
2022/06/15 01:37:52;;;;;;;6.57;3.67;;;14.60;99.90;;;;;;5088753;28;20451;-82
2022/06/15 01:40:24;;;;;;;7.77;3.57;;;14.60;99.90;;;;;;5088648;28;20479;-82
2022/06/15 01:42:58;;;;;;;6.60;3.20;;;14.60;99.90;;;;;;5091438;28;20519;-82
2022/06/15 01:45:31;;;;;;;5.03;3.30;;;14.50;99.90;;;;;;5089219;28;20880;-82
2022/06/15 01:48:00;;;;;;;9.73;3.40;;;14.50;99.90;;;;;;5089724;28;20447;-82
2022/06/15 01:50:30;;;;;;;4.57;3.33;;;14.50;99.90;;;;;;5083292;28;20497;-82
2022/06/15 01:53:00;;;;;;;10.73;3.77;;;14.50;99.90;;;;;;5089032;28;20473;-82
2022/06/15 01:55:30;;;;;;;13.90;3.80;;;14.50;99.90;;;;;;5086994;28;20508;-82
2022/06/15 01:58:02;;;;;;;6.83;3.60;;;14.40;99.90;;;;;;5081051;28;20456;-82
2022/06/15 02:00:30;;;;;;;9.80;3.60;;;14.40;99.90;;;;;;5090973;28;20468;-82
2022/06/15 02:03:05;;;;;;;6.17;3.40;;;14.40;99.90;;;;;;5092654;28;20574;-82
2022/06/15 02:05:40;;;;;;;5.10;3.53;;;14.40;99.90;;;;;;5083402;28;20455;-82
2022/06/15 02:08:15;;;;;;;6.03;3.90;;;14.40;99.90;;;;;;5084918;28;20526;-82
2022/06/15 02:10:48;;;;;;;6.27;3.50;;;14.30;99.90;;;;;;5091633;28;20470;-82
2022/06/15 02:13:21;;;;;;;7.70;3.53;;;14.30;99.90;;;;;;5094627;28;20458;-83
2022/06/15 02:15:55;;;;;;;5.67;4.17;;;14.30;99.90;;;;;;5082537;28;20478;-82
2022/06/15 02:18:24;;;;;;;5.10;3.80;;;14.30;99.90;;;;;;5084369;28;20447;-82
2022/06/15 02:20:54;;;;;;;6.03;3.90;;;14.20;99.90;;;;;;5087084;28;20466;-82
2022/06/15 02:23:22;;;;;;;4.73;3.67;;;14.20;99.90;;;;;;5090270;28;20474;-83
2022/06/15 02:25:51;;;;;;;5.90;3.73;;;14.20;99.90;;;;;;5086467;28;20529;-82
2022/06/15 02:28:19;;;;;;;7.27;3.60;;;14.20;99.90;;;;;;5080662;28;20919;-82
2022/06/15 02:30:46;;;;;;;6.60;3.53;;;14.10;99.90;;;;;;5085140;28;20463;-82
2022/06/15 02:33:24;;;;;;;10.73;4.00;;;14.10;99.90;;;;;;5085685;28;20450;-82
2022/06/15 02:35:51;;;;;;;6.10;3.73;;;14.10;99.90;;;;;;5086913;28;20478;-83
2022/06/15 02:38:17;;;;;;;4.67;3.30;;;14.00;99.90;;;;;;5080977;28;20709;-83
2022/06/15 02:40:44;;;;;;;5.63;3.90;;;14.00;99.90;;;;;;5086430;28;20503;-83
2022/06/15 02:43:13;;;;;;;6.37;3.90;;;13.90;99.90;;;;;;5078295;28;20504;-83
2022/06/15 02:45:41;;;;;;;8.97;4.67;;;13.90;99.90;;;;;;5086313;28;20447;-83
2022/06/15 02:48:10;;;;;;;5.63;3.53;;;13.90;99.90;;;;;;5089274;28;20541;-82
2022/06/15 02:50:42;;;;;;;4.97;3.60;;;13.90;99.90;;;;;;5080591;28;20479;-82
2022/06/15 02:53:13;;;;;;;4.70;3.97;;;13.90;99.90;;;;;;5076695;28;20444;-82
2022/06/15 02:55:40;;;;;;;8.63;3.87;;;13.80;99.90;;;;;;5076021;28;22422;-82
2022/06/15 02:58:09;;;;;;;7.50;3.70;;;13.90;99.90;;;;;;5077453;28;20451;-82
2022/06/15 03:00:38;;;;;;;5.80;3.97;;;13.90;99.90;;;;;;5076315;28;20478;-82
2022/06/15 03:03:05;;;;;;;9.93;4.07;;;13.80;99.90;;;;;;5075456;28;21018;-82
2022/06/15 03:05:32;;;;;;;6.13;3.90;;;13.80;99.90;;;;;;5075549;28;20455;-82
2022/06/15 03:08:00;;;;;;;7.80;4.13;;;13.80;99.90;;;;;;5087999;28;20443;-83
2022/06/15 03:10:27;;;;;;;5.47;3.80;;;13.70;99.90;;;;;;5093563;28;20470;-83
2022/06/15 03:12:54;;;;;;;10.43;4.93;;;13.80;99.90;;;;;;5085631;28;20462;-82
2022/06/15 03:15:20;;;;;;;6.03;3.67;;;13.70;99.90;;;;;;5086044;28;20484;-82
2022/06/15 03:17:47;;;;;;;7.27;4.13;;;13.70;99.90;;;;;;5084307;28;20451;-82
2022/06/15 03:20:14;;;;;;;9.43;3.97;;;13.60;99.90;;;;;;5087606;28;20482;-83
2022/06/15 03:22:42;;;;;;;10.30;4.40;;;13.60;99.90;;;;;;5079006;28;20548;-83
2022/06/15 03:25:11;;;;;;;9.73;4.30;;;13.60;99.90;;;;;;5093696;28;20459;-84
2022/06/15 03:27:38;;;;;;;6.50;4.40;;;13.60;99.90;;;;;;5086337;28;20451;-83
2022/06/15 03:30:07;;;;;;;4.50;3.80;;;13.60;99.90;;;;;;5083500;28;20475;-83
2022/06/15 03:32:33;;;;;;;10.63;4.20;;;13.40;99.90;;;;;;5090639;28;20833;-83
2022/06/15 03:35:00;;;;;;;7.00;3.93;;;13.60;99.90;;;;;;5079113;28;20524;-83
2022/06/15 03:37:27;;;;;;;7.70;4.13;;;13.60;99.90;;;;;;5078102;28;20455;-82
2022/06/15 03:39:54;;;;;;;4.50;4.10;;;13.60;99.90;;;;;;5088393;28;20471;-83
2022/06/15 03:42:25;;;;;;;5.13;4.20;;;13.60;99.90;;;;;;5089281;28;20486;-82
2022/06/15 03:44:53;;;;;;;7.90;4.23;;;13.60;99.90;;;;;;5084186;28;20469;-82
2022/06/15 03:47:20;;;;;;;7.33;4.03;;;13.60;99.90;;;;;;5079096;28;20495;-83
2022/06/15 03:49:48;;;;;;;6.37;4.20;;;13.70;99.90;;;;;;5082632;28;20482;-82
2022/06/15 03:52:15;;;;;;;6.97;4.50;;;13.60;99.90;;;;;;5081189;28;20542;-82
2022/06/15 03:54:42;;;;;;;8.83;4.27;;;13.60;99.90;;;;;;5086764;28;20450;-82
2022/06/15 03:57:11;;;;;;;5.50;4.33;;;13.70;99.90;;;;;;5091694;28;20455;-83
2022/06/15 03:59:39;;;;;;;6.03;4.43;;;13.70;99.90;;;;;;5086150;28;20442;-82
2022/06/15 04:02:06;;;;;;;3.83;3.53;;;13.70;99.90;;;;;;5096243;28;20577;-82
2022/06/15 04:04:33;;;;;;;7.13;3.97;;;13.70;99.90;;;;;;5095408;28;20493;-82
2022/06/15 04:07:00;;;;;;;5.33;3.87;;;13.70;99.90;;;;;;5090376;28;20455;-82
2022/06/15 04:09:27;;;;;;;6.63;4.77;;;13.80;99.90;;;;;;5088978;28;20446;-82
2022/06/15 04:12:01;;;;;;;7.03;4.23;;;13.80;99.90;;;;;;5087268;28;20505;-82
2022/06/15 04:14:28;;;;;;;13.17;4.40;;;13.80;99.90;;;;;;5091757;28;20458;-82
2022/06/15 04:16:56;;;;;;;5.53;4.00;;;13.80;99.90;;;;;;5092952;28;20501;-80
2022/06/15 04:19:24;;;;;;;9.93;4.70;;;13.80;99.90;;;;;;5090002;28;20504;-81
2022/06/15 04:21:50;;;;;;;8.33;4.80;;;13.80;99.90;;;;;;5090939;28;20496;-82
2022/06/15 04:24:18;;;;;;;6.53;4.30;;;13.80;99.90;;;;;;5098807;28;20450;-82
2022/06/15 04:26:46;;;;;;;9.83;4.60;;;13.90;99.90;;;;;;5094440;28;20448;-82
2022/06/15 04:29:13;;;;;;;5.40;4.80;;;13.90;99.90;;;;;;5089714;28;20859;-81
2022/06/15 04:31:40;;;;;;;6.93;4.70;;;13.90;99.90;;;;;;5091527;28;20791;-82
2022/06/15 04:34:10;;;;;;;10.40;4.77;;;13.90;99.90;;;;;;5087676;28;20535;-81
2022/06/15 04:36:38;;;;;;;6.03;5.03;;;13.90;99.90;;;;;;5081797;28;20440;-81
2022/06/15 04:39:08;;;;;;;11.93;5.00;;;13.90;99.90;;;;;;5091243;28;20452;-82
2022/06/15 04:41:36;;;;;;;11.70;5.10;;;14.00;99.90;;;;;;5087251;28;20519;-81
2022/06/15 04:44:02;;;;;;;7.17;5.13;;;14.00;99.90;;;;;;5081218;28;20530;-80
2022/06/15 04:46:29;;;;;;;11.33;5.60;;;14.00;99.90;;;;;;5094286;28;20473;-80
2022/06/15 04:48:56;;;;;;;10.23;4.87;;;14.00;99.90;;;;;;5091635;28;20451;-80
2022/06/15 04:51:27;;;;;;;9.60;4.97;;;14.10;99.90;;;;;;5086096;28;20482;-81
2022/06/15 04:53:55;;;;;;;12.27;5.70;;;14.10;99.90;;;;;;5089885;28;20460;-81
2022/06/15 04:56:23;;;;;;;7.70;5.73;;;14.20;99.90;;;;;;5090254;28;20460;-80
2022/06/15 04:58:49;;;;;;;12.73;5.00;;;14.20;99.90;;;;;;5079873;28;20584;-80
2022/06/15 05:01:17;;;;;;;7.30;5.53;;;14.30;99.90;;;;;;5080681;28;20476;-80
2022/06/15 05:03:44;;;;;;;9.80;4.93;;;14.30;99.90;;;;;;5081274;28;20491;-80
2022/06/15 05:06:13;;;;;;;10.93;5.20;;;14.40;99.90;;;;;;5080829;28;20501;-79
2022/06/15 05:08:41;;;;;;;9.73;5.63;;;14.50;99.90;;;;;;5080441;28;20448;-80
2022/06/15 05:11:08;;;;;;;8.93;5.23;;;14.60;99.90;;;;;;5080222;28;20863;-81
2022/06/15 05:13:35;;;;;;;13.30;5.73;;;14.70;99.90;;;;;;5079485;28;20457;-80
2022/06/15 05:16:01;;;;;;;11.90;5.57;;;14.80;99.90;;;;;;5081025;28;20456;-78
2022/06/15 05:18:28;;;;;;;8.60;4.80;;;14.90;99.90;;;;;;5086236;28;20451;-80
2022/06/15 05:20:55;;;;;;;13.43;5.67;;;15.00;99.90;;;;;;5084883;28;20490;-80
2022/06/15 05:23:21;;;;;;;7.17;4.97;;;15.20;99.90;;;;;;5081641;28;20945;-79
2022/06/15 05:25:49;;;;;;;9.47;4.90;;;15.20;99.90;;;;;;5077796;28;20501;-79
2022/06/15 05:28:16;;;;;;;9.33;5.10;;;15.40;99.90;;;;;;5077676;28;20447;-79
2022/06/15 05:30:43;;;;;;;12.17;5.43;;;15.50;99.90;;;;;;5076232;28;20446;-80
2022/06/15 05:33:10;;;;;;;13.80;5.17;;;15.60;99.90;;;;;;5078937;28;20899;-79
2022/06/15 05:35:37;;;;;;;7.10;4.77;;;15.80;99.90;;;;;;5086703;28;20504;-80
2022/06/15 05:38:03;;;;;;;7.53;4.87;;;16.00;99.90;;;;;;5079597;28;20447;-80
2022/06/15 05:40:30;;;;;;;7.13;4.17;;;16.20;99.90;;;;;;5098009;28;20519;-80
2022/06/15 05:42:58;;;;;;;13.03;5.27;;;16.30;99.90;;;;;;5097869;28;20500;-80
2022/06/15 05:45:25;;;;;;;7.83;4.70;;;16.50;99.90;;;;;;5097198;28;20485;-80
2022/06/15 05:47:51;;;;;;;6.63;5.00;;;16.70;99.90;;;;;;5097604;28;20870;-80
2022/06/15 05:50:18;;;;;;;16.83;5.00;;;16.80;99.90;;;;;;5101047;28;20820;-80
2022/06/15 05:52:45;;;;;;;10.90;4.70;;;17.00;99.90;;;;;;5098184;28;20447;-80
2022/06/15 05:55:11;;;;;;;8.97;4.67;;;17.20;99.90;;;;;;5096666;28;20454;-80
2022/06/15 05:57:38;;;;;;;9.00;5.23;;;17.40;99.90;;;;;;5097599;28;20473;-81
2022/06/15 06:00:09;;;;;;;10.67;5.23;;;17.50;99.90;;;;;;5097328;28;20840;-80
2022/06/15 06:02:36;;;;;;;6.73;5.03;;;17.60;99.90;;;;;;5098818;28;20543;-80
2022/06/15 06:05:03;;;;;;;9.17;5.10;;;17.70;99.90;;;;;;5099767;28;20512;-81
2022/06/15 06:07:29;;;;;;;9.27;4.60;;;17.80;99.90;;;;;;5098904;28;20459;-80
2022/06/15 06:09:56;;;;;;;10.23;5.13;;;17.80;99.90;;;;;;5097307;28;20441;-80
2022/06/15 06:12:23;;;;;;;9.57;4.73;;;18.00;99.90;;;;;;5096913;28;20422;-80
2022/06/15 06:14:51;;;;;;;7.27;4.47;;;18.10;99.90;;;;;;5096811;28;20429;-80
2022/06/15 06:17:19;;;;;;;9.60;4.47;;;18.20;99.90;;;;;;5098119;28;20471;-80
2022/06/15 06:19:46;;;;;;;7.93;4.20;;;18.40;99.90;;;;;;5097802;28;20451;-81
2022/06/15 06:22:12;;;;;;;8.17;5.37;;;18.50;99.90;;;;;;5096686;28;20526;-80
2022/06/15 06:24:39;;;;;;;6.40;4.33;;;18.70;99.90;;;;;;5096768;28;20476;-80
2022/06/15 06:27:07;;;;;;;8.13;4.00;;;18.90;99.90;;;;;;5098085;28;20435;-80
2022/06/15 06:29:35;;;;;;;7.47;4.40;;;19.00;99.90;;;;;;5097455;28;20500;-80
2022/06/15 06:32:02;;;;;;;12.53;4.40;;;19.10;99.90;;;;;;5097297;28;20451;-80
2022/06/15 06:34:30;;;;;;;5.00;3.87;;;19.30;99.90;;;;;;5080431;28;20443;-80
2022/06/15 06:36:57;;;;;;;7.27;4.33;;;19.60;99.90;;;;;;5076949;28;20489;-80
2022/06/15 06:39:27;;;;;;;6.33;4.20;;;19.70;99.90;;;;;;5088354;28;20938;-80
2022/06/15 06:41:54;;;;;;;12.60;4.03;;;19.90;99.90;;;;;;5096679;28;20447;-80
2022/06/15 06:44:21;;;;;;;10.10;3.83;;;20.00;99.90;;;;;;5096396;28;20512;-80
2022/06/15 06:46:49;;;;;;;6.10;4.13;;;20.10;99.90;;;;;;5095748;28;20446;-80
2022/06/15 06:49:17;;;;;;;6.60;3.20;;;20.20;99.90;;;;;;5095395;28;20504;-80
2022/06/15 06:51:46;;;;;;;6.07;3.73;;;20.40;99.90;;;;;;5096823;28;21208;-80
2022/06/15 06:54:15;;;;;;;11.07;3.93;;;20.50;99.90;;;;;;5096869;28;21000;-80
2022/06/15 06:56:42;;;;;;;6.30;3.67;;;20.80;99.90;;;;;;5097072;28;20450;-80
2022/06/15 06:59:11;;;;;;;5.70;3.00;;;20.90;99.90;;;;;;5096711;28;20504;-80
2022/06/15 07:01:41;;;;;;;8.50;3.43;;;21.10;99.90;;;;;;5096754;28;20836;-80
2022/06/15 07:04:09;;;;;;;7.93;3.00;;;21.30;99.90;;;;;;5099687;28;20516;-80
2022/06/15 07:06:35;;;;;;;10.33;3.67;;;21.50;99.90;;;;;;5096538;28;20446;-80
2022/06/15 07:09:04;;;;;;;5.87;3.30;;;21.70;99.90;;;;;;5096497;28;20977;-80
2022/06/15 07:11:31;;;;;;;4.57;3.67;;;22.00;99.90;;;;;;5098492;28;20467;-80
2022/06/15 07:13:58;;;;;;;5.60;3.20;;;22.20;99.90;;;;;;5098108;28;20447;-80
2022/06/15 07:16:25;;;;;;;6.60;3.50;;;22.30;99.90;;;;;;5098011;28;20946;-80
2022/06/15 07:18:52;;;;;;;10.17;4.43;;;22.40;99.90;;;;;;5099633;28;20500;-80
2022/06/15 07:21:22;;;;;;;7.10;3.47;;;22.60;99.90;;;;;;5100301;28;20470;-80
2022/06/15 07:23:51;;;;;;;5.23;3.20;;;22.60;99.90;;;;;;5098725;28;20478;-80
2022/06/15 07:26:23;;;;;;;7.70;3.30;;;22.60;99.90;;;;;;5103235;28;20442;-80
2022/06/15 07:28:50;;;;;;;7.63;2.97;;;22.60;99.90;;;;;;5102926;28;20500;-80
2022/06/15 07:31:22;;;;;;;12.27;4.60;;;22.70;99.90;;;;;;5102487;28;20466;-79
2022/06/15 07:33:50;;;;;;;11.43;3.43;;;22.70;99.90;;;;;;5101506;28;20453;-79
2022/06/15 07:36:16;;;;;;;7.93;3.60;;;22.80;99.90;;;;;;5101595;28;20922;-79
2022/06/15 07:38:43;;;;;;;5.50;3.40;;;22.80;99.90;;;;;;5101978;28;20856;-80
2022/06/15 07:41:10;;;;;;;6.43;3.37;;;22.80;99.90;;;;;;5101399;28;20458;-79
2022/06/15 07:43:39;;;;;;;5.13;3.13;;;22.80;99.90;;;;;;5100821;28;20681;-79
2022/06/15 07:46:06;;;;;;;5.37;2.97;;;22.90;99.90;;;;;;5102137;28;20450;-80
2022/06/15 07:51:28;;;;;;;5.87;3.10;;;23.20;99.90;;;;;;5100655;28;20481;-79
2022/06/15 07:53:55;;;;;;;4.77;2.80;;;23.50;99.90;;;;;;5101001;28;20450;-80
2022/06/15 07:56:21;;;;;;;4.93;2.60;;;23.80;99.90;;;;;;5102172;28;20451;-80
2022/06/15 07:58:49;;;;;;;5.63;3.20;;;23.50;99.90;;;;;;5102447;28;20438;-79
2022/06/15 08:01:16;;;;;;;4.70;3.03;;;23.50;99.90;;;;;;5104397;28;20463;-80
2022/06/15 08:03:43;;;;;;;8.97;3.50;;;23.60;99.90;;;;;;5101892;28;20486;-80
2022/06/15 08:06:10;;;;;;;6.07;3.00;;;23.70;99.90;;;;;;5106969;28;20450;-80
2022/06/15 08:08:37;;;;;;;9.40;3.07;;;23.70;99.90;;;;;;5109447;28;20982;-80
2022/06/15 08:11:04;;;;;;;8.60;2.67;;;23.90;99.90;;;;;;5107296;28;20523;-79
2022/06/15 08:13:31;;;;;;;7.03;3.10;;;24.20;99.90;;;;;;5107657;28;20439;-80
2022/06/15 08:15:59;;;;;;;4.90;2.60;;;24.50;99.90;;;;;;5109380;28;20442;-79
2022/06/15 08:18:31;;;;;;;6.40;3.00;;;24.60;99.90;;;;;;5109671;28;20796;-80
2022/06/15 08:21:00;;;;;;;10.13;3.30;;;24.60;99.90;;;;;;5089148;28;20475;-80
2022/06/15 08:23:29;;;;;;;4.77;2.67;;;24.80;99.90;;;;;;5089400;28;20483;-80
2022/06/15 08:25:59;;;;;;;12.90;3.33;;;24.90;99.90;;;;;;5087793;28;20493;-80
2022/06/15 08:28:30;;;;;;;5.87;3.00;;;25.00;99.90;;;;;;5087987;28;20851;-80
2022/06/15 08:30:57;;;;;;;4.10;2.73;;;25.00;99.90;;;;;;5087871;28;20493;-80
2022/06/15 08:33:26;;;;;;;8.73;3.37;;;25.20;99.90;;;;;;5095008;28;20923;-80
2022/06/15 08:35:53;;;;;;;4.47;2.90;;;25.20;99.90;;;;;;5106665;28;20468;-80
2022/06/15 08:38:23;;;;;;;9.07;3.10;;;25.70;99.90;;;;;;5107302;28;20499;-80
2022/06/15 08:40:53;;;;;;;4.13;2.87;;;25.80;99.90;;;;;;5106908;28;20481;-79
2022/06/15 08:43:40;;;;;;;4.70;3.10;;;26.10;99.90;;;;;;5105949;28;20475;-79
2022/06/15 08:46:18;;;;;;;6.03;2.90;;;26.40;99.90;;;;;;5105642;28;20946;-79
2022/06/15 08:48:59;;;;;;;5.03;3.30;;;26.10;99.90;;;;;;5107810;28;20447;-80
2022/06/15 08:51:30;;;;;;;3.50;2.87;;;26.00;99.90;;;;;;5106780;28;20490;-79
2022/06/15 08:54:03;;;;;;;3.37;2.77;;;26.00;99.90;;;;;;5107463;28;20508;-80
2022/06/15 08:56:37;;;;;;;8.77;3.03;;;26.20;99.90;;;;;;5107549;28;20439;-80
2022/06/15 08:59:11;;;;;;;4.40;3.37;;;26.40;99.90;;;;;;5107199;28;20458;-80
2022/06/15 09:01:41;;;;;;;6.43;2.83;;;26.70;99.90;;;;;;5106724;28;20474;-79
2022/06/15 09:04:19;;;;;;;5.03;3.17;;;26.50;99.90;;;;;;5106003;28;20501;-79
2022/06/15 09:06:58;;;;;;;4.87;3.20;;;26.40;99.90;;;;;;5106454;28;20451;-79
2022/06/15 09:09:36;;;;;;;3.50;2.70;;;26.20;99.90;;;;;;5107038;28;20683;-79
2022/06/15 09:15:09;;;;;;;3.40;2.80;;;26.60;99.90;;;;;;5106016;28;20414;-80
2022/06/15 09:17:38;;;;;;;3.70;2.60;;;26.80;99.90;;;;;;5104910;28;20446;-79
2022/06/15 09:20:11;;;;;;;3.60;3.00;;;27.00;99.90;;;;;;5104879;28;20466;-80
2022/06/15 09:22:43;;;;;;;3.33;3.00;;;27.40;99.90;;;;;;5105091;28;20446;-80
2022/06/15 09:25:14;;;;;;;8.23;2.83;;;27.70;99.90;;;;;;5105734;28;21139;-79
2022/06/15 09:27:47;;;;;;;7.07;3.00;;;27.60;99.90;;;;;;5105514;28;20446;-79
2022/06/15 09:30:18;;;;;;;6.70;3.07;;;27.70;99.90;;;;;;5104056;28;20471;-79
2022/06/15 09:32:52;;;;;;;4.17;3.27;;;28.00;99.90;;;;;;5101596;28;20457;-79
2022/06/15 09:35:25;;;;;;;3.87;2.87;;;28.20;99.90;;;;;;5083623;28;20443;-79
2022/06/15 09:37:57;;;;;;;5.97;3.00;;;28.30;99.90;;;;;;5082923;28;20859;-79
2022/06/15 09:40:33;;;;;;;7.30;3.40;;;28.40;99.90;;;;;;5083674;28;20475;-79
2022/06/15 09:43:10;;;;;;;4.50;3.27;;;28.40;99.90;;;;;;5081238;28;20442;-79
2022/06/15 09:45:45;;;;;;;3.73;2.80;;;28.30;99.90;;;;;;5082244;28;20494;-79
2022/06/15 09:48:20;;;;;;;8.80;3.17;;;28.40;99.90;;;;;;5081625;28;20481;-79
2022/06/15 09:50:54;;;;;;;9.00;3.20;;;28.40;99.90;;;;;;5083249;28;20532;-79
2022/06/15 09:53:34;;;;;;;4.43;3.10;;;28.70;99.90;;;;;;5083789;28;20451;-79
2022/06/15 09:56:06;;;;;;;6.37;3.20;;;28.90;99.90;;;;;;5083191;28;20711;-80
2022/06/15 09:58:38;;;;;;;8.93;2.97;;;29.10;99.90;;;;;;5082543;28;20490;-79
2022/06/15 10:01:07;;;;;;;14.97;4.20;;;28.90;98.00;;;;;;5083101;28;20475;-79
2022/06/15 10:03:38;;;;;;;5.13;3.17;;;29.10;99.50;;;;;;5082259;28;20443;-79
2022/06/15 10:06:25;;;;;;;7.10;3.00;;;29.20;97.50;;;;;;5082187;28;20793;-79
2022/06/15 10:08:53;;;;;;;4.23;3.20;;;29.20;97.50;;;;;;5080731;28;20467;-79
2022/06/15 10:11:25;;;;;;;7.70;3.30;;;28.80;98.10;;;;;;5079185;28;20479;-79
2022/06/15 10:13:52;;;;;;;4.27;3.50;;;28.80;97.60;;;;;;5080517;28;20474;-79
2022/06/15 10:16:25;;;;;;;5.60;3.00;;;29.10;96.90;;;;;;5081201;28;20443;-79
2022/06/15 10:18:54;;;;;;;9.07;3.13;;;29.40;97.70;;;;;;5084477;28;20516;-79
2022/06/15 10:21:25;;;;;;;7.17;3.20;;;29.60;96.10;;;;;;5101033;28;20471;-79
2022/06/15 10:23:56;;;;;;;3.80;3.03;;;29.60;95.70;;;;;;5101235;28;20479;-79
2022/06/15 10:26:28;;;;;;;8.47;3.30;;;29.80;96.90;;;;;;5101684;28;20942;-79
2022/06/15 10:28:56;;;;;;;4.47;3.20;;;29.90;95.50;;;;;;5099196;28;20870;-79
2022/06/15 10:31:27;;;;;;;4.63;3.20;;;29.70;95.10;;;;;;5100987;28;20981;-79
2022/06/15 10:33:56;;;;;;;5.60;3.30;;;29.80;95.20;;;;;;5099260;28;20439;-79
2022/06/15 10:36:31;;;;;;;4.43;3.10;;;30.00;94.40;;;;;;5098534;28;20458;-78
2022/06/15 10:39:06;;;;;;;3.47;3.10;;;30.00;93.90;;;;;;5097720;28;20997;-78
2022/06/15 10:41:46;;;;;;;4.63;3.17;;;29.70;93.90;;;;;;5097843;28;20474;-78
2022/06/15 10:44:14;;;;;;;7.40;3.30;;;29.20;94.60;;;;;;5098148;28;20474;-78
2022/06/15 10:46:54;;;;;;;5.20;3.07;;;29.40;94.70;;;;;;5099468;28;20594;-78
2022/06/15 10:49:22;;;;;;;5.40;2.80;;;29.70;94.40;;;;;;5099163;28;20695;-79
2022/06/15 10:51:51;;;;;;;4.80;3.43;;;30.20;93.60;;;;;;5098613;28;20512;-78
2022/06/15 11:02:06;;;;;;;6.20;3.03;;;30.30;93.60;;;;;;5097684;28;20442;-78
2022/06/15 11:03:09;;;;;;;5.93;3.37;;;30.80;93.50;;;;;;5097609;28;20944;-78
2022/06/15 11:05:36;;;;;;;5.07;3.43;;;30.90;93.00;;;;;;5098073;28;20482;-78
2022/06/15 11:08:15;;;;;;;5.43;2.73;;;31.10;93.00;;;;;;5100046;28;20465;-79
2022/06/15 11:10:44;;;;;;;7.13;3.10;;;31.50;93.00;;;;;;5101307;28;20466;-79
2022/06/15 11:13:31;;;;;;;5.30;3.47;;;31.80;92.00;;;;;;5098479;28;20523;-79
2022/06/15 11:18:46;;;;;;;4.03;3.00;;;31.20;91.20;;;;;;5097223;28;20430;-79
2022/06/15 11:21:16;;;;;;;4.20;3.17;;;31.10;92.00;;;;;;5097919;28;20492;-79
2022/06/15 11:23:52;;;;;;;3.00;2.70;;;31.40;92.20;;;;;;5098219;28;20566;-78
2022/06/15 11:29:25;;;;;;;3.77;3.17;;;31.10;90.70;;;;;;5097336;28;20535;-79
2022/06/15 11:31:55;;;;;;;4.90;3.17;;;30.90;91.10;;;;;;5096585;28;20499;-78
2022/06/15 11:34:27;;;;;;;2.87;2.50;;;30.70;90.60;;;;;;5081881;28;20493;-78
2022/06/15 11:37:04;;;;;;;4.00;2.70;;;30.90;90.50;;;;;;5077644;28;20505;-78
2022/06/15 11:39:39;;;;;;;5.10;3.40;;;31.30;91.10;;;;;;5088855;28;20446;-78
2022/06/15 11:42:11;;;;;;;9.23;3.60;;;31.30;88.60;;;;;;5097639;28;20496;-78
2022/06/15 11:44:41;;;;;;;4.03;2.93;;;31.10;89.70;;;;;;5096514;28;20512;-78
2022/06/15 11:47:21;;;;;;;4.80;3.00;;;31.30;88.60;;;;;;5097085;28;20451;-78
2022/06/15 11:49:58;;;;;;;6.77;2.90;;;31.80;90.00;;;;;;5097023;28;20549;-78
2022/06/15 11:52:41;;;;;;;8.63;3.23;;;32.30;86.90;;;;;;5096773;28;21111;-78
2022/06/15 11:55:25;;;;;;;16.23;4.07;;;32.10;86.60;;;;;;5094191;28;20447;-77
2022/06/15 11:58:17;;;;;;;4.70;2.90;;;31.10;87.00;;;;;;5093660;28;20446;-77
2022/06/15 12:00:49;;;;;;;4.23;2.60;;;30.90;87.40;;;;;;5094486;28;20506;-78
2022/06/15 12:03:53;;;;;;;3.67;2.87;;;31.00;87.20;;;;;;5093196;28;20950;-78
2022/06/15 12:06:26;;;;;;;3.80;2.97;;;31.50;86.40;;;;;;5062029;28;20498;-78
2022/06/15 12:09:02;;;;;;;7.40;2.93;;;31.70;84.40;;;;;;5095208;28;20934;-78
2022/06/15 12:14:30;;;;;;;4.60;2.77;;;31.80;84.50;;;;;;5080578;28;20434;-78
2022/06/15 12:17:04;;;;;;;4.80;2.80;;;32.00;83.60;;;;;;5098910;28;20468;-78
2022/06/15 12:19:37;;;;;;;4.57;2.67;;;32.50;85.00;;;;;;5099440;28;20443;-78
2022/06/15 12:22:13;;;;;;;3.80;3.03;;;32.80;82.30;;;;;;5100544;28;20512;-78
2022/06/15 12:24:46;;;;;;;4.73;2.80;;;33.10;82.90;;;;;;5099061;28;20915;-78
2022/06/15 12:27:22;;;;;;;5.17;2.80;;;33.50;81.60;;;;;;5100236;28;20450;-78
2022/06/15 12:29:59;;;;;;;6.10;3.07;;;34.00;82.50;;;;;;5100067;28;20466;-78
2022/06/15 12:32:37;;;;;;;5.40;3.20;;;33.60;77.20;;;;;;5098507;28;20454;-78
2022/06/15 12:35:20;;;;;;;2.97;2.63;;;33.10;77.80;;;;;;5076429;28;20448;-78
2022/06/15 12:37:53;;;;;;;5.47;2.83;;;32.80;77.60;;;;;;5077404;28;20950;-78
2022/06/15 12:40:29;;;;;;;4.47;2.73;;;32.10;78.20;;;;;;5094776;28;20475;-78
2022/06/15 12:43:05;;;;;;;3.70;2.57;;;32.20;77.10;;;;;;5096070;28;20504;-77
2022/06/15 12:45:36;;;;;;;3.77;2.70;;;32.40;80.40;;;;;;5095180;28;20482;-77
2022/06/15 12:48:12;;;;;;;5.40;2.53;;;32.40;80.30;;;;;;5098323;28;20473;-78
2022/06/15 12:50:47;;;;;;;5.13;2.80;;;32.70;80.20;;;;;;5097447;28;20478;-78
2022/06/15 12:53:26;;;;;;;6.57;3.03;;;32.30;79.60;;;;;;5098277;28;20499;-78
2022/06/15 12:56:00;;;;;;;4.80;3.13;;;32.30;80.60;;;;;;5097132;28;20446;-78
2022/06/15 12:58:35;;;;;;;3.07;2.57;;;32.50;79.80;;;;;;5095962;28;20500;-78
2022/06/15 13:01:11;;;;;;;3.30;2.77;;;32.60;79.30;;;;;;5095808;28;20882;-78
2022/06/15 13:03:48;;;;;;;3.43;2.73;;;32.20;78.90;;;;;;5097674;28;20454;-78
2022/06/15 13:06:24;;;;;;;4.70;2.80;;;32.10;79.70;;;;;;5096147;28;20474;-78
2022/06/15 13:09:08;;;;;;;2.97;2.67;;;32.10;79.90;;;;;;5097622;28;20476;-78
2022/06/15 13:11:46;;;;;;;4.80;3.27;;;32.20;78.60;;;;;;5097651;28;20557;-78
2022/06/15 13:14:17;;;;;;;5.87;3.70;;;32.40;78.90;;;;;;5095731;28;20486;-78
2022/06/15 13:16:59;;;;;;;3.27;2.97;;;32.70;78.50;;;;;;5097339;28;20439;-78
2022/06/15 13:19:31;;;;;;;3.73;3.00;;;32.60;77.90;;;;;;5095094;28;20496;-78
2022/06/15 13:22:16;;;;;;;2.80;2.60;;;32.50;79.40;;;;;;5095589;28;20472;-78
2022/06/15 13:24:57;;;;;;;3.40;2.90;;;32.70;79.40;;;;;;5096263;28;20524;-78